Airfield :
LOGIN :

Register | Disclaimer

   EN    FR    IT 

 










Legend :    VFR   Marginal VFR   IFR   Intensive IFR   Very Intensive IFR
Visi :
Ceiling :
>= 8 km
>= 3000ft
5 to 8 km
1000 to 3000 ft
1500m to 5 km
500 to 1000 ft
800 to 1500m
200 to 500 ft
< 800m
< 200 ft
Symbols :   Thunderstorms  Fog  Heavy snow  Heavy precipitations  Wind > 20 kt
SIGMETs :     Misc.  Thunderstorms  Icing  Turbulence  Mountain Waves  Volcanic Ashes







- Airport Elevation : 56 ft
- IATA code : ILY
- Download approach charts


EGPI - Islay

CURRENT METAR :
  • 301620Z 10019KT 060V140 CAVOK 15/04 Q1000

EXPIRED METARs :
  • 301550Z 11021G31KT 070V150 CAVOK 16/04 Q1000
  • 301520Z 10022G33KT 070V130 CAVOK 16/04 Q1000
  • 301450Z 10024KT 070V130 CAVOK 16/04 Q1000
  • 301420Z 10025G35KT 050V130 CAVOK 15/04 Q1000
  • 301350Z 09025KT 060V130 CAVOK 15/04 Q1000

TAF TAF EGPI
Valid from the 30 at 15:00 until the 30 at 18:00 UTC


301353Z 3015/3018 10017KT 9999 FEW045
TEMPO 3015/3018 11023G34KT
No reported NOTAMs for that airfield.
1 SIGMET reported for the Scottish FIR (EGPX) :
 
Severe mountain waves
EGPX SIGMET 01 VALID 301500/301900 EGRR
EGPX SCOTTISH FIR SEV MTW FCST WI N5751 W00144 - N5532 W00301 - N5531 W00444 - N5739 W00623 - N5842 W00325 - N5751 W00144 FL040/180 STNR NC=



MET'MAP, your aeronautical weather chart ! - Copyright ORBIFLY December 2007 - Disclaimer

ORBIFLY MET'MAP TEAM :

Programming & Development : Alexandra Zaïnal
Concept & Development : Baudouin d'Aumeries
Co-Development & Prog : Marc-Olivier Méhu
Technical & hardware support : Manuel Goepfert

Contact : metmap@orbifly.com




SOURCES & CREDITS :

   NOAA